sensor_id;sensor_type;location;lat;lon;timestamp;P1;durP1;ratioP1;P2;durP2;ratioP2
54787;SDS011;59598;48.112;16.280;2022-09-30T00:02:08;3.95;;;3.55;;
54787;SDS011;59598;48.112;16.280;2022-09-30T00:04:44;3.45;;;2.95;;
54787;SDS011;59598;48.112;16.280;2022-09-30T00:07:21;4.47;;;2.92;;
54787;SDS011;59598;48.112;16.280;2022-09-30T00:09:52;4.47;;;3.42;;
54787;SDS011;59598;48.112;16.280;2022-09-30T00:12:23;2.95;;;2.65;;
54787;SDS011;59598;48.112;16.280;2022-09-30T00:14:56;3.75;;;3.20;;
54787;SDS011;59598;48.112;16.280;2022-09-30T00:17:28;4.53;;;4.07;;
54787;SDS011;59598;48.112;16.280;2022-09-30T00:19:59;4.95;;;3.38;;
54787;SDS011;59598;48.112;16.280;2022-09-30T00:22:32;4.27;;;3.47;;
54787;SDS011;59598;48.112;16.280;2022-09-30T00:25:04;4.47;;;3.53;;
54787;SDS011;59598;48.112;16.280;2022-09-30T00:27:38;6.07;;;3.65;;
54787;SDS011;59598;48.112;16.280;2022-09-30T00:30:09;3.88;;;3.42;;
54787;SDS011;59598;48.112;16.280;2022-09-30T00:32:40;5.45;;;3.75;;
54787;SDS011;59598;48.112;16.280;2022-09-30T00:35:12;3.58;;;3.28;;
54787;SDS011;59598;48.112;16.280;2022-09-30T00:37:43;5.20;;;3.30;;
54787;SDS011;59598;48.112;16.280;2022-09-30T00:40:14;5.72;;;3.72;;
54787;SDS011;59598;48.112;16.280;2022-09-30T00:42:46;4.38;;;3.78;;
54787;SDS011;59598;48.112;16.280;2022-09-30T00:45:18;6.25;;;3.50;;
54787;SDS011;59598;48.112;16.280;2022-09-30T00:50:40;3.45;;;3.15;;
54787;SDS011;59598;48.112;16.280;2022-09-30T00:58:30;4.93;;;3.30;;
54787;SDS011;59598;48.112;16.280;2022-09-30T01:01:13;7.32;;;3.97;;
54787;SDS011;59598;48.112;16.280;2022-09-30T01:03:46;4.95;;;3.50;;
54787;SDS011;59598;48.112;16.280;2022-09-30T01:06:22;4.03;;;3.33;;
54787;SDS011;59598;48.112;16.280;2022-09-30T01:08:54;4.22;;;3.60;;
54787;SDS011;59598;48.112;16.280;2022-09-30T01:11:29;3.88;;;3.47;;
54787;SDS011;59598;48.112;16.280;2022-09-30T01:14:01;4.57;;;3.70;;
54787;SDS011;59598;48.112;16.280;2022-09-30T01:25:41;4.00;;;3.55;;
54787;SDS011;59598;48.112;16.280;2022-09-30T01:31:13;3.72;;;3.17;;
54787;SDS011;59598;48.112;16.280;2022-09-30T01:56:28;6.80;;;4.50;;
54787;SDS011;59598;48.112;16.280;2022-09-30T01:59:11;4.93;;;4.13;;
54787;SDS011;59598;48.112;16.280;2022-09-30T02:01:57;7.43;;;5.13;;
54787;SDS011;59598;48.112;16.280;2022-09-30T02:04:47;4.30;;;3.80;;
54787;SDS011;59598;48.112;16.280;2022-09-30T02:10:19;6.63;;;3.90;;
54787;SDS011;59598;48.112;16.280;2022-09-30T02:13:09;5.57;;;4.53;;
54787;SDS011;59598;48.112;16.280;2022-09-30T02:16:01;8.75;;;4.93;;
54787;SDS011;59598;48.112;16.280;2022-09-30T02:18:44;7.82;;;4.75;;
54787;SDS011;59598;48.112;16.280;2022-09-30T02:21:36;5.85;;;4.70;;
54787;SDS011;59598;48.112;16.280;2022-09-30T02:24:11;7.88;;;5.38;;
54787;SDS011;59598;48.112;16.280;2022-09-30T02:26:48;5.80;;;4.88;;
54787;SDS011;59598;48.112;16.280;2022-09-30T02:29:27;5.53;;;4.57;;
54787;SDS011;59598;48.112;16.280;2022-09-30T02:32:04;5.05;;;4.32;;
54787;SDS011;59598;48.112;16.280;2022-09-30T02:34:47;6.53;;;4.93;;
54787;SDS011;59598;48.112;16.280;2022-09-30T02:37:29;7.22;;;4.63;;
54787;SDS011;59598;48.112;16.280;2022-09-30T02:40:51;6.30;;;5.05;;
54787;SDS011;59598;48.112;16.280;2022-09-30T02:42:58;5.90;;;4.70;;
54787;SDS011;59598;48.112;16.280;2022-09-30T02:45:30;8.75;;;5.20;;
54787;SDS011;59598;48.112;16.280;2022-09-30T02:49:16;8.60;;;5.78;;
54787;SDS011;59598;48.112;16.280;2022-09-30T03:00:22;7.28;;;5.95;;
54787;SDS011;59598;48.112;16.280;2022-09-30T03:02:59;15.77;;;6.25;;
54787;SDS011;59598;48.112;16.280;2022-09-30T03:05:35;8.93;;;6.25;;
54787;SDS011;59598;48.112;16.280;2022-09-30T03:08:06;10.57;;;7.13;;
54787;SDS011;59598;48.112;16.280;2022-09-30T03:10:40;12.05;;;7.03;;
54787;SDS011;59598;48.112;16.280;2022-09-30T03:33:37;10.93;;;7.40;;
54787;SDS011;59598;48.112;16.280;2022-09-30T03:39:42;10.68;;;7.45;;
54787;SDS011;59598;48.112;16.280;2022-09-30T03:42:26;10.68;;;7.72;;
54787;SDS011;59598;48.112;16.280;2022-09-30T03:45:11;14.25;;;7.47;;
54787;SDS011;59598;48.112;16.280;2022-09-30T03:47:55;11.73;;;7.35;;
54787;SDS011;59598;48.112;16.280;2022-09-30T03:50:31;11.85;;;7.53;;
54787;SDS011;59598;48.112;16.280;2022-09-30T03:53:07;10.75;;;7.55;;
54787;SDS011;59598;48.112;16.280;2022-09-30T03:55:46;14.93;;;8.57;;
54787;SDS011;59598;48.112;16.280;2022-09-30T03:58:20;10.40;;;7.47;;
54787;SDS011;59598;48.112;16.280;2022-09-30T04:00:55;14.20;;;8.13;;
54787;SDS011;59598;48.112;16.280;2022-09-30T04:03:36;13.82;;;8.02;;
54787;SDS011;59598;48.112;16.280;2022-09-30T04:06:09;12.93;;;7.32;;
54787;SDS011;59598;48.112;16.280;2022-09-30T04:08:43;10.95;;;7.95;;
54787;SDS011;59598;48.112;16.280;2022-09-30T04:11:17;12.20;;;8.48;;
54787;SDS011;59598;48.112;16.280;2022-09-30T04:13:51;16.25;;;8.75;;
54787;SDS011;59598;48.112;16.280;2022-09-30T04:16:24;13.07;;;8.55;;
54787;SDS011;59598;48.112;16.280;2022-09-30T04:19:03;15.32;;;9.60;;
54787;SDS011;59598;48.112;16.280;2022-09-30T04:21:34;16.77;;;9.15;;
54787;SDS011;59598;48.112;16.280;2022-09-30T04:24:08;13.82;;;8.55;;
54787;SDS011;59598;48.112;16.280;2022-09-30T04:26:39;12.43;;;8.57;;
54787;SDS011;59598;48.112;16.280;2022-09-30T04:29:11;13.05;;;9.10;;
54787;SDS011;59598;48.112;16.280;2022-09-30T04:31:48;12.57;;;7.82;;
54787;SDS011;59598;48.112;16.280;2022-09-30T04:34:19;16.88;;;9.30;;
54787;SDS011;59598;48.112;16.280;2022-09-30T04:36:51;13.88;;;8.63;;
54787;SDS011;59598;48.112;16.280;2022-09-30T04:39:22;16.35;;;9.45;;
54787;SDS011;59598;48.112;16.280;2022-09-30T04:41:59;14.10;;;8.73;;
54787;SDS011;59598;48.112;16.280;2022-09-30T04:44:30;13.82;;;9.50;;
54787;SDS011;59598;48.112;16.280;2022-09-30T04:47:04;12.73;;;8.63;;
54787;SDS011;59598;48.112;16.280;2022-09-30T04:49:39;13.38;;;9.00;;
54787;SDS011;59598;48.112;16.280;2022-09-30T04:52:10;13.75;;;9.00;;
54787;SDS011;59598;48.112;16.280;2022-09-30T04:54:41;13.88;;;8.93;;
54787;SDS011;59598;48.112;16.280;2022-09-30T04:59:47;13.23;;;8.88;;
54787;SDS011;59598;48.112;16.280;2022-09-30T05:02:21;13.00;;;8.90;;
54787;SDS011;59598;48.112;16.280;2022-09-30T05:04:55;15.57;;;9.63;;
54787;SDS011;59598;48.112;16.280;2022-09-30T05:07:26;14.60;;;8.35;;
54787;SDS011;59598;48.112;16.280;2022-09-30T05:10:02;11.70;;;7.63;;
54787;SDS011;59598;48.112;16.280;2022-09-30T05:12:33;9.18;;;6.90;;
54787;SDS011;59598;48.112;16.280;2022-09-30T05:15:04;12.93;;;8.38;;
54787;SDS011;59598;48.112;16.280;2022-09-30T05:17:36;11.75;;;8.43;;
54787;SDS011;59598;48.112;16.280;2022-09-30T05:20:08;12.88;;;7.90;;
54787;SDS011;59598;48.112;16.280;2022-09-30T05:22:40;12.40;;;7.97;;
54787;SDS011;59598;48.112;16.280;2022-09-30T05:25:11;12.43;;;8.18;;
54787;SDS011;59598;48.112;16.280;2022-09-30T05:27:43;14.68;;;8.63;;
54787;SDS011;59598;48.112;16.280;2022-09-30T05:30:18;13.05;;;8.98;;
54787;SDS011;59598;48.112;16.280;2022-09-30T05:32:49;13.90;;;8.63;;
54787;SDS011;59598;48.112;16.280;2022-09-30T05:35:23;12.18;;;8.52;;
54787;SDS011;59598;48.112;16.280;2022-09-30T05:37:54;13.82;;;7.82;;
54787;SDS011;59598;48.112;16.280;2022-09-30T05:43:06;10.85;;;7.38;;
54787;SDS011;59598;48.112;16.280;2022-09-30T05:45:37;12.35;;;7.20;;
54787;SDS011;59598;48.112;16.280;2022-09-30T05:48:09;11.55;;;7.55;;
54787;SDS011;59598;48.112;16.280;2022-09-30T05:50:40;10.68;;;6.75;;
54787;SDS011;59598;48.112;16.280;2022-09-30T05:53:12;10.13;;;6.95;;
54787;SDS011;59598;48.112;16.280;2022-09-30T05:55:44;13.63;;;8.05;;
54787;SDS011;59598;48.112;16.280;2022-09-30T05:58:17;10.07;;;7.05;;
54787;SDS011;59598;48.112;16.280;2022-09-30T06:00:51;8.63;;;6.53;;
54787;SDS011;59598;48.112;16.280;2022-09-30T06:03:25;13.25;;;7.93;;
54787;SDS011;59598;48.112;16.280;2022-09-30T06:05:59;9.02;;;6.10;;
54787;SDS011;59598;48.112;16.280;2022-09-30T06:08:30;6.90;;;5.90;;
54787;SDS011;59598;48.112;16.280;2022-09-30T06:11:07;7.50;;;6.63;;
54787;SDS011;59598;48.112;16.280;2022-09-30T06:13:44;7.00;;;5.32;;
54787;SDS011;59598;48.112;16.280;2022-09-30T06:16:17;6.45;;;5.28;;
54787;SDS011;59598;48.112;16.280;2022-09-30T06:18:49;9.15;;;5.63;;
54787;SDS011;59598;48.112;16.280;2022-09-30T06:21:26;6.75;;;5.72;;
54787;SDS011;59598;48.112;16.280;2022-09-30T06:23:58;8.77;;;5.65;;
54787;SDS011;59598;48.112;16.280;2022-09-30T06:26:30;9.35;;;6.55;;
54787;SDS011;59598;48.112;16.280;2022-09-30T06:29:01;8.73;;;6.45;;
54787;SDS011;59598;48.112;16.280;2022-09-30T06:31:32;9.50;;;6.75;;
54787;SDS011;59598;48.112;16.280;2022-09-30T06:34:04;9.00;;;6.40;;
54787;SDS011;59598;48.112;16.280;2022-09-30T06:36:36;9.55;;;6.72;;
54787;SDS011;59598;48.112;16.280;2022-09-30T06:39:07;9.77;;;6.80;;
54787;SDS011;59598;48.112;16.280;2022-09-30T06:41:38;10.10;;;7.05;;
54787;SDS011;59598;48.112;16.280;2022-09-30T06:44:13;10.32;;;7.82;;
54787;SDS011;59598;48.112;16.280;2022-09-30T06:46:47;8.30;;;7.00;;
54787;SDS011;59598;48.112;16.280;2022-09-30T06:49:18;10.70;;;7.78;;
54787;SDS011;59598;48.112;16.280;2022-09-30T06:51:50;9.23;;;7.30;;
54787;SDS011;59598;48.112;16.280;2022-09-30T06:54:21;8.23;;;6.70;;
54787;SDS011;59598;48.112;16.280;2022-09-30T06:56:53;9.23;;;6.90;;
54787;SDS011;59598;48.112;16.280;2022-09-30T06:59:26;8.57;;;6.65;;
54787;SDS011;59598;48.112;16.280;2022-09-30T07:01:58;9.32;;;7.15;;
54787;SDS011;59598;48.112;16.280;2022-09-30T07:04:29;9.60;;;6.63;;
54787;SDS011;59598;48.112;16.280;2022-09-30T07:07:00;9.48;;;6.90;;
54787;SDS011;59598;48.112;16.280;2022-09-30T07:09:32;10.10;;;6.60;;
54787;SDS011;59598;48.112;16.280;2022-09-30T07:12:03;10.10;;;6.90;;
54787;SDS011;59598;48.112;16.280;2022-09-30T07:14:36;10.85;;;7.05;;
54787;SDS011;59598;48.112;16.280;2022-09-30T07:17:08;8.88;;;7.25;;
54787;SDS011;59598;48.112;16.280;2022-09-30T07:19:39;10.13;;;7.25;;
54787;SDS011;59598;48.112;16.280;2022-09-30T07:22:10;10.75;;;8.68;;
54787;SDS011;59598;48.112;16.280;2022-09-30T07:25:00;8.32;;;6.75;;
54787;SDS011;59598;48.112;16.280;2022-09-30T07:27:33;10.90;;;8.32;;
54787;SDS011;59598;48.112;16.280;2022-09-30T07:30:04;9.77;;;7.28;;
54787;SDS011;59598;48.112;16.280;2022-09-30T07:32:36;9.98;;;7.30;;
54787;SDS011;59598;48.112;16.280;2022-09-30T07:35:08;11.52;;;7.65;;
54787;SDS011;59598;48.112;16.280;2022-09-30T07:37:39;12.63;;;8.57;;
54787;SDS011;59598;48.112;16.280;2022-09-30T07:40:10;11.77;;;8.55;;
54787;SDS011;59598;48.112;16.280;2022-09-30T07:42:42;9.50;;;7.93;;
54787;SDS011;59598;48.112;16.280;2022-09-30T07:45:14;10.93;;;8.27;;
54787;SDS011;59598;48.112;16.280;2022-09-30T07:47:48;10.27;;;8.18;;
54787;SDS011;59598;48.112;16.280;2022-09-30T07:50:19;11.32;;;8.50;;
54787;SDS011;59598;48.112;16.280;2022-09-30T07:52:51;8.90;;;7.70;;
54787;SDS011;59598;48.112;16.280;2022-09-30T07:55:23;11.60;;;7.88;;
54787;SDS011;59598;48.112;16.280;2022-09-30T07:57:56;9.98;;;7.18;;
54787;SDS011;59598;48.112;16.280;2022-09-30T08:00:27;8.23;;;7.05;;
54787;SDS011;59598;48.112;16.280;2022-09-30T08:02:58;8.70;;;6.78;;
54787;SDS011;59598;48.112;16.280;2022-09-30T08:05:31;9.18;;;6.80;;
54787;SDS011;59598;48.112;16.280;2022-09-30T08:08:02;9.05;;;7.03;;
54787;SDS011;59598;48.112;16.280;2022-09-30T08:10:33;7.50;;;6.45;;
54787;SDS011;59598;48.112;16.280;2022-09-30T08:13:05;7.40;;;6.57;;
54787;SDS011;59598;48.112;16.280;2022-09-30T08:15:37;8.23;;;6.45;;
54787;SDS011;59598;48.112;16.280;2022-09-30T08:18:09;8.38;;;7.00;;
54787;SDS011;59598;48.112;16.280;2022-09-30T08:20:41;10.85;;;6.35;;
54787;SDS011;59598;48.112;16.280;2022-09-30T08:23:15;10.43;;;7.03;;
54787;SDS011;59598;48.112;16.280;2022-09-30T08:25:46;9.25;;;6.50;;
54787;SDS011;59598;48.112;16.280;2022-09-30T08:28:17;6.65;;;5.88;;
54787;SDS011;59598;48.112;16.280;2022-09-30T08:30:49;7.50;;;6.35;;
54787;SDS011;59598;48.112;16.280;2022-09-30T08:33:20;8.43;;;6.05;;
54787;SDS011;59598;48.112;16.280;2022-09-30T08:35:54;7.38;;;6.45;;
54787;SDS011;59598;48.112;16.280;2022-09-30T08:38:30;7.57;;;5.75;;
54787;SDS011;59598;48.112;16.280;2022-09-30T08:41:05;6.68;;;5.90;;
54787;SDS011;59598;48.112;16.280;2022-09-30T08:44:20;8.00;;;6.53;;
54787;SDS011;59598;48.112;16.280;2022-09-30T08:47:24;8.15;;;6.35;;
54787;SDS011;59598;48.112;16.280;2022-09-30T08:53:04;7.50;;;6.30;;
54787;SDS011;59598;48.112;16.280;2022-09-30T08:55:44;9.18;;;6.28;;
54787;SDS011;59598;48.112;16.280;2022-09-30T08:58:33;7.50;;;5.93;;
54787;SDS011;59598;48.112;16.280;2022-09-30T09:03:50;6.72;;;5.80;;
54787;SDS011;59598;48.112;16.280;2022-09-30T09:17:10;7.43;;;5.30;;
54787;SDS011;59598;48.112;16.280;2022-09-30T09:20:03;6.40;;;5.78;;
54787;SDS011;59598;48.112;16.280;2022-09-30T09:22:46;6.88;;;4.93;;
54787;SDS011;59598;48.112;16.280;2022-09-30T09:25:22;5.97;;;4.88;;
54787;SDS011;59598;48.112;16.280;2022-09-30T09:28:00;5.90;;;4.60;;
54787;SDS011;59598;48.112;16.280;2022-09-30T09:30:40;4.78;;;4.28;;
54787;SDS011;59598;48.112;16.280;2022-09-30T09:33:22;6.65;;;4.45;;
54787;SDS011;59598;48.112;16.280;2022-09-30T09:47:41;4.43;;;4.03;;
54787;SDS011;59598;48.112;16.280;2022-09-30T09:50:19;5.43;;;3.78;;
54787;SDS011;59598;48.112;16.280;2022-09-30T09:56:04;3.72;;;3.42;;
54787;SDS011;59598;48.112;16.280;2022-09-30T09:59:08;5.25;;;3.80;;
54787;SDS011;59598;48.112;16.280;2022-09-30T10:01:45;5.35;;;4.00;;
54787;SDS011;59598;48.112;16.280;2022-09-30T10:04:22;4.63;;;3.97;;
54787;SDS011;59598;48.112;16.280;2022-09-30T10:07:00;4.25;;;3.85;;
54787;SDS011;59598;48.112;16.280;2022-09-30T10:09:44;5.43;;;4.25;;
54787;SDS011;59598;48.112;16.280;2022-09-30T10:12:16;4.43;;;3.75;;
54787;SDS011;59598;48.112;16.280;2022-09-30T10:14:58;5.95;;;3.75;;
54787;SDS011;59598;48.112;16.280;2022-09-30T10:17:33;6.78;;;3.85;;
54787;SDS011;59598;48.112;16.280;2022-09-30T10:20:16;3.92;;;3.03;;
54787;SDS011;59598;48.112;16.280;2022-09-30T10:23:00;4.82;;;3.20;;
54787;SDS011;59598;48.112;16.280;2022-09-30T10:25:57;2.80;;;2.60;;
54787;SDS011;59598;48.112;16.280;2022-09-30T10:28:46;3.15;;;2.85;;
54787;SDS011;59598;48.112;16.280;2022-09-30T10:36:46;3.15;;;2.85;;
54787;SDS011;59598;48.112;16.280;2022-09-30T10:39:25;3.10;;;2.67;;
54787;SDS011;59598;48.112;16.280;2022-09-30T10:44:41;3.15;;;2.75;;
54787;SDS011;59598;48.112;16.280;2022-09-30T10:47:14;3.05;;;2.70;;
54787;SDS011;59598;48.112;16.280;2022-09-30T10:52:28;3.28;;;2.80;;
54787;SDS011;59598;48.112;16.280;2022-09-30T10:55:06;3.10;;;2.80;;
54787;SDS011;59598;48.112;16.280;2022-09-30T10:57:55;3.33;;;2.78;;
54787;SDS011;59598;48.112;16.280;2022-09-30T11:00:34;3.95;;;2.95;;
54787;SDS011;59598;48.112;16.280;2022-09-30T11:03:10;3.28;;;2.97;;
54787;SDS011;59598;48.112;16.280;2022-09-30T11:05:47;3.08;;;2.78;;
54787;SDS011;59598;48.112;16.280;2022-09-30T11:24:56;3.00;;;2.70;;
54787;SDS011;59598;48.112;16.280;2022-09-30T11:30:20;3.00;;;2.70;;
54787;SDS011;59598;48.112;16.280;2022-09-30T11:38:17;2.35;;;1.88;;
54787;SDS011;59598;48.112;16.280;2022-09-30T11:58:10;2.25;;;2.05;;
54787;SDS011;59598;48.112;16.280;2022-09-30T12:00:46;3.17;;;2.92;;
54787;SDS011;59598;48.112;16.280;2022-09-30T12:06:10;1.52;;;1.42;;
54787;SDS011;59598;48.112;16.280;2022-09-30T12:09:07;2.33;;;2.13;;
54787;SDS011;59598;48.112;16.280;2022-09-30T12:11:55;2.75;;;2.10;;
54787;SDS011;59598;48.112;16.280;2022-09-30T12:17:24;2.30;;;1.67;;
54787;SDS011;59598;48.112;16.280;2022-09-30T12:19:57;2.10;;;1.90;;
54787;SDS011;59598;48.112;16.280;2022-09-30T12:22:38;4.30;;;1.70;;
54787;SDS011;59598;48.112;16.280;2022-09-30T12:25:22;1.55;;;1.45;;
54787;SDS011;59598;48.112;16.280;2022-09-30T12:28:04;2.42;;;1.40;;
54787;SDS011;59598;48.112;16.280;2022-09-30T12:46:27;1.70;;;1.40;;
54787;SDS011;59598;48.112;16.280;2022-09-30T12:49:12;2.50;;;2.08;;
54787;SDS011;59598;48.112;16.280;2022-09-30T12:51:51;1.73;;;1.63;;
54787;SDS011;59598;48.112;16.280;2022-09-30T12:57:03;2.35;;;2.00;;
54787;SDS011;59598;48.112;16.280;2022-09-30T12:59:44;1.95;;;1.50;;
54787;SDS011;59598;48.112;16.280;2022-09-30T13:02:41;2.08;;;1.70;;
54787;SDS011;59598;48.112;16.280;2022-09-30T13:15:59;2.50;;;1.65;;
54787;SDS011;59598;48.112;16.280;2022-09-30T13:23:43;2.05;;;1.70;;
54787;SDS011;59598;48.112;16.280;2022-09-30T13:34:23;1.92;;;1.83;;
54787;SDS011;59598;48.112;16.280;2022-09-30T13:37:01;2.00;;;1.55;;
54787;SDS011;59598;48.112;16.280;2022-09-30T13:45:01;2.20;;;1.90;;
54787;SDS011;59598;48.112;16.280;2022-09-30T13:47:47;2.60;;;1.80;;
54787;SDS011;59598;48.112;16.280;2022-09-30T13:50:31;1.65;;;1.55;;
54787;SDS011;59598;48.112;16.280;2022-09-30T13:53:11;1.67;;;1.50;;
54787;SDS011;59598;48.112;16.280;2022-09-30T13:55:47;2.47;;;1.60;;
54787;SDS011;59598;48.112;16.280;2022-09-30T14:04:01;1.50;;;1.40;;
54787;SDS011;59598;48.112;16.280;2022-09-30T14:09:30;1.95;;;1.60;;
54787;SDS011;59598;48.112;16.280;2022-09-30T14:20:36;1.40;;;1.30;;
54787;SDS011;59598;48.112;16.280;2022-09-30T14:23:31;1.50;;;1.40;;
54787;SDS011;59598;48.112;16.280;2022-09-30T14:28:52;1.90;;;1.60;;
54787;SDS011;59598;48.112;16.280;2022-09-30T14:31:44;1.73;;;1.63;;
54787;SDS011;59598;48.112;16.280;2022-09-30T14:34:16;1.73;;;1.60;;
54787;SDS011;59598;48.112;16.280;2022-09-30T14:36:50;1.70;;;1.60;;
54787;SDS011;59598;48.112;16.280;2022-09-30T14:39:28;2.50;;;1.48;;
54787;SDS011;59598;48.112;16.280;2022-09-30T14:42:01;1.58;;;1.48;;
54787;SDS011;59598;48.112;16.280;2022-09-30T14:44:33;1.40;;;1.30;;
54787;SDS011;59598;48.112;16.280;2022-09-30T14:47:05;1.70;;;1.35;;
54787;SDS011;59598;48.112;16.280;2022-09-30T14:49:39;1.67;;;1.58;;
54787;SDS011;59598;48.112;16.280;2022-09-30T15:03:33;1.88;;;1.77;;
54787;SDS011;59598;48.112;16.280;2022-09-30T15:06:29;1.60;;;1.50;;
54787;SDS011;59598;48.112;16.280;2022-09-30T15:09:06;1.60;;;1.50;;
54787;SDS011;59598;48.112;16.280;2022-09-30T15:11:50;1.83;;;1.73;;
54787;SDS011;59598;48.112;16.280;2022-09-30T15:14:22;2.55;;;2.13;;
54787;SDS011;59598;48.112;16.280;2022-09-30T15:19:28;1.60;;;1.50;;
54787;SDS011;59598;48.112;16.280;2022-09-30T15:22:04;1.90;;;1.80;;
54787;SDS011;59598;48.112;16.280;2022-09-30T15:24:39;1.90;;;1.80;;
54787;SDS011;59598;48.112;16.280;2022-09-30T15:27:28;2.03;;;1.52;;
54787;SDS011;59598;48.112;16.280;2022-09-30T15:32:47;2.05;;;1.77;;
54787;SDS011;59598;48.112;16.280;2022-09-30T15:35:26;1.73;;;1.63;;
54787;SDS011;59598;48.112;16.280;2022-09-30T15:40:54;1.90;;;1.60;;
54787;SDS011;59598;48.112;16.280;2022-09-30T15:43:40;2.00;;;1.90;;
54787;SDS011;59598;48.112;16.280;2022-09-30T15:46:34;2.25;;;1.95;;
54787;SDS011;59598;48.112;16.280;2022-09-30T15:49:28;2.10;;;2.00;;
54787;SDS011;59598;48.112;16.280;2022-09-30T15:52:26;2.33;;;2.13;;
54787;SDS011;59598;48.112;16.280;2022-09-30T15:54:58;2.55;;;2.30;;
54787;SDS011;59598;48.112;16.280;2022-09-30T15:57:47;1.80;;;1.70;;
54787;SDS011;59598;48.112;16.280;2022-09-30T16:03:18;2.15;;;1.70;;
54787;SDS011;59598;48.112;16.280;2022-09-30T16:06:03;2.55;;;2.10;;
54787;SDS011;59598;48.112;16.280;2022-09-30T16:08:49;2.47;;;2.20;;
54787;SDS011;59598;48.112;16.280;2022-09-30T16:14:16;2.42;;;1.80;;
54787;SDS011;59598;48.112;16.280;2022-09-30T16:16:54;3.60;;;2.83;;
54787;SDS011;59598;48.112;16.280;2022-09-30T16:19:31;2.33;;;2.13;;
54787;SDS011;59598;48.112;16.280;2022-09-30T16:22:03;2.35;;;2.15;;
54787;SDS011;59598;48.112;16.280;2022-09-30T16:27:22;2.63;;;2.42;;
54787;SDS011;59598;48.112;16.280;2022-09-30T16:30:00;3.35;;;2.45;;
54787;SDS011;59598;48.112;16.280;2022-09-30T16:32:35;3.13;;;2.55;;
54787;SDS011;59598;48.112;16.280;2022-09-30T16:35:19;2.80;;;2.58;;
54787;SDS011;59598;48.112;16.280;2022-09-30T16:38:00;4.55;;;4.15;;
54787;SDS011;59598;48.112;16.280;2022-09-30T16:40:36;4.40;;;3.95;;
54787;SDS011;59598;48.112;16.280;2022-09-30T16:43:08;5.13;;;3.90;;
54787;SDS011;59598;48.112;16.280;2022-09-30T16:45:41;7.07;;;4.50;;
54787;SDS011;59598;48.112;16.280;2022-09-30T16:48:14;7.57;;;6.85;;
54787;SDS011;59598;48.112;16.280;2022-09-30T16:50:59;11.77;;;6.27;;
54787;SDS011;59598;48.112;16.280;2022-09-30T16:53:37;7.40;;;6.20;;
54787;SDS011;59598;48.112;16.280;2022-09-30T16:56:15;8.40;;;5.65;;
54787;SDS011;59598;48.112;16.280;2022-09-30T16:58:49;6.22;;;5.30;;
54787;SDS011;59598;48.112;16.280;2022-09-30T17:01:21;7.43;;;5.85;;
54787;SDS011;59598;48.112;16.280;2022-09-30T17:03:54;8.80;;;6.20;;
54787;SDS011;59598;48.112;16.280;2022-09-30T17:06:28;10.80;;;6.93;;
54787;SDS011;59598;48.112;16.280;2022-09-30T17:09:02;7.85;;;5.57;;
54787;SDS011;59598;48.112;16.280;2022-09-30T17:11:35;6.25;;;3.78;;
54787;SDS011;59598;48.112;16.280;2022-09-30T17:14:07;5.10;;;3.92;;
54787;SDS011;59598;48.112;16.280;2022-09-30T17:16:38;6.45;;;4.00;;
54787;SDS011;59598;48.112;16.280;2022-09-30T17:19:10;6.75;;;4.53;;
54787;SDS011;59598;48.112;16.280;2022-09-30T17:21:44;8.07;;;4.85;;
54787;SDS011;59598;48.112;16.280;2022-09-30T17:24:16;6.97;;;3.80;;
54787;SDS011;59598;48.112;16.280;2022-09-30T17:26:47;4.93;;;3.13;;
54787;SDS011;59598;48.112;16.280;2022-09-30T17:29:18;3.55;;;3.03;;
54787;SDS011;59598;48.112;16.280;2022-09-30T17:31:49;3.88;;;2.92;;
54787;SDS011;59598;48.112;16.280;2022-09-30T17:34:24;3.15;;;2.70;;
54787;SDS011;59598;48.112;16.280;2022-09-30T17:36:59;3.28;;;2.75;;
54787;SDS011;59598;48.112;16.280;2022-09-30T17:39:33;5.13;;;3.63;;
54787;SDS011;59598;48.112;16.280;2022-09-30T17:42:05;3.53;;;2.92;;
54787;SDS011;59598;48.112;16.280;2022-09-30T17:44:59;5.60;;;3.22;;
54787;SDS011;59598;48.112;16.280;2022-09-30T17:47:30;3.20;;;2.85;;
54787;SDS011;59598;48.112;16.280;2022-09-30T17:50:02;3.08;;;2.30;;
54787;SDS011;59598;48.112;16.280;2022-09-30T17:52:33;9.50;;;2.58;;
54787;SDS011;59598;48.112;16.280;2022-09-30T17:55:04;4.03;;;2.70;;
54787;SDS011;59598;48.112;16.280;2022-09-30T17:57:36;3.25;;;2.40;;
54787;SDS011;59598;48.112;16.280;2022-09-30T18:00:09;2.80;;;2.60;;
54787;SDS011;59598;48.112;16.280;2022-09-30T18:02:42;2.58;;;2.38;;
54787;SDS011;59598;48.112;16.280;2022-09-30T18:05:14;2.67;;;2.47;;
54787;SDS011;59598;48.112;16.280;2022-09-30T18:07:46;2.80;;;2.50;;
54787;SDS011;59598;48.112;16.280;2022-09-30T18:10:17;3.13;;;2.85;;
54787;SDS011;59598;48.112;16.280;2022-09-30T18:12:49;2.85;;;2.55;;
54787;SDS011;59598;48.112;16.280;2022-09-30T18:15:23;3.38;;;3.00;;
54787;SDS011;59598;48.112;16.280;2022-09-30T18:17:59;3.33;;;2.45;;
54787;SDS011;59598;48.112;16.280;2022-09-30T18:20:30;3.00;;;2.70;;
54787;SDS011;59598;48.112;16.280;2022-09-30T18:23:02;2.83;;;2.50;;
54787;SDS011;59598;48.112;16.280;2022-09-30T18:25:36;2.90;;;2.63;;
54787;SDS011;59598;48.112;16.280;2022-09-30T18:28:09;2.65;;;2.45;;
54787;SDS011;59598;48.112;16.280;2022-09-30T18:30:41;2.80;;;2.60;;
54787;SDS011;59598;48.112;16.280;2022-09-30T18:33:13;4.65;;;2.50;;
54787;SDS011;59598;48.112;16.280;2022-09-30T18:35:46;4.85;;;2.95;;
54787;SDS011;59598;48.112;16.280;2022-09-30T18:38:18;2.80;;;2.60;;
54787;SDS011;59598;48.112;16.280;2022-09-30T18:40:49;4.80;;;3.50;;
54787;SDS011;59598;48.112;16.280;2022-09-30T18:43:22;3.90;;;3.03;;
54787;SDS011;59598;48.112;16.280;2022-09-30T18:45:56;3.45;;;3.10;;
54787;SDS011;59598;48.112;16.280;2022-09-30T18:48:33;3.75;;;3.10;;
54787;SDS011;59598;48.112;16.280;2022-09-30T18:51:09;5.03;;;2.88;;
54787;SDS011;59598;48.112;16.280;2022-09-30T18:53:42;3.83;;;3.42;;
54787;SDS011;59598;48.112;16.280;2022-09-30T18:56:16;5.13;;;3.85;;
54787;SDS011;59598;48.112;16.280;2022-09-30T18:58:53;4.93;;;4.13;;
54787;SDS011;59598;48.112;16.280;2022-09-30T19:01:24;4.40;;;3.58;;
54787;SDS011;59598;48.112;16.280;2022-09-30T19:03:57;7.43;;;4.10;;
54787;SDS011;59598;48.112;16.280;2022-09-30T19:06:31;6.10;;;4.50;;
54787;SDS011;59598;48.112;16.280;2022-09-30T19:09:02;4.68;;;4.25;;
54787;SDS011;59598;48.112;16.280;2022-09-30T19:11:37;9.63;;;5.70;;
54787;SDS011;59598;48.112;16.280;2022-09-30T19:14:12;4.57;;;3.70;;
54787;SDS011;59598;48.112;16.280;2022-09-30T19:16:45;5.78;;;3.90;;
54787;SDS011;59598;48.112;16.280;2022-09-30T19:19:24;4.75;;;3.75;;
54787;SDS011;59598;48.112;16.280;2022-09-30T19:22:01;6.00;;;3.28;;
54787;SDS011;59598;48.112;16.280;2022-09-30T19:24:33;5.05;;;3.90;;
54787;SDS011;59598;48.112;16.280;2022-09-30T19:27:09;6.55;;;3.95;;
54787;SDS011;59598;48.112;16.280;2022-09-30T19:29:43;6.38;;;4.60;;
54787;SDS011;59598;48.112;16.280;2022-09-30T19:32:18;8.00;;;4.70;;
54787;SDS011;59598;48.112;16.280;2022-09-30T19:34:49;5.38;;;4.60;;
54787;SDS011;59598;48.112;16.280;2022-09-30T19:37:24;6.03;;;4.97;;
54787;SDS011;59598;48.112;16.280;2022-09-30T19:39:56;6.70;;;5.60;;
54787;SDS011;59598;48.112;16.280;2022-09-30T19:42:27;8.80;;;6.05;;
54787;SDS011;59598;48.112;16.280;2022-09-30T19:44:59;7.32;;;6.05;;
54787;SDS011;59598;48.112;16.280;2022-09-30T19:47:32;8.45;;;6.60;;
54787;SDS011;59598;48.112;16.280;2022-09-30T19:50:08;7.47;;;6.38;;
54787;SDS011;59598;48.112;16.280;2022-09-30T19:52:39;7.57;;;6.30;;